createdAt,value
2023-01-06T00:00:42.680Z,2.17
2023-01-06T00:03:10.044Z,3.73
2023-01-06T00:05:36.695Z,2.67
2023-01-06T00:08:03.411Z,1.50
2023-01-06T00:10:30.148Z,2.07
2023-01-06T00:12:56.874Z,1.60
2023-01-06T00:15:23.613Z,2.00
2023-01-06T00:17:50.373Z,1.23
2023-01-06T00:20:17.397Z,3.30
2023-01-06T00:22:44.433Z,1.00
2023-01-06T00:25:11.489Z,1.77
2023-01-06T00:27:39.890Z,1.10
2023-01-06T00:30:07.903Z,1.53
2023-01-06T00:32:35.275Z,2.43
2023-01-06T00:35:02.988Z,1.47
2023-01-06T00:37:30.317Z,4.53
2023-01-06T00:39:57.272Z,1.20
2023-01-06T00:42:24.901Z,3.53
2023-01-06T00:44:52.183Z,1.47
2023-01-06T00:47:20.922Z,2.03
2023-01-06T00:49:47.987Z,0.80
2023-01-06T00:52:15.250Z,2.03
2023-01-06T00:54:43.103Z,1.00
2023-01-06T00:57:10.021Z,4.20
2023-01-06T00:59:37.187Z,1.57
2023-01-06T01:02:05.097Z,3.83
2023-01-06T01:04:32.306Z,2.83
2023-01-06T01:07:00.430Z,1.33
2023-01-06T01:09:30.019Z,1.47
2023-01-06T01:12:10.382Z,2.27
2023-01-06T01:14:55.489Z,1.57
2023-01-06T01:17:30.338Z,1.43
2023-01-06T01:19:59.115Z,2.33
2023-01-06T01:22:30.487Z,2.40
2023-01-06T01:24:57.579Z,1.43
2023-01-06T01:27:24.266Z,1.77
2023-01-06T01:29:52.789Z,2.40
2023-01-06T01:32:19.613Z,2.73
2023-01-06T01:34:46.296Z,1.17
2023-01-06T01:37:14.224Z,3.13
2023-01-06T01:39:41.829Z,2.13
2023-01-06T01:42:16.019Z,3.90
2023-01-06T01:45:07.123Z,2.23
2023-01-06T01:47:57.460Z,1.90
2023-01-06T01:50:30.010Z,1.37
2023-01-06T01:53:02.171Z,1.03
2023-01-06T01:55:30.930Z,2.43
2023-01-06T01:58:02.760Z,1.60
2023-01-06T02:00:29.511Z,1.77
2023-01-06T02:02:57.296Z,2.83
2023-01-06T02:05:26.416Z,2.37
2023-01-06T02:07:54.814Z,1.70
2023-01-06T02:10:24.257Z,1.00
2023-01-06T02:12:57.120Z,1.50
2023-01-06T02:15:32.938Z,2.13
2023-01-06T02:18:26.899Z,1.17
2023-01-06T02:21:41.755Z,1.57
2023-01-06T02:24:46.202Z,1.07
2023-01-06T02:27:47.146Z,2.30
2023-01-06T02:30:16.502Z,1.70
2023-01-06T02:33:02.052Z,1.87
2023-01-06T02:35:34.711Z,4.33
2023-01-06T02:38:23.810Z,3.60
2023-01-06T02:41:39.733Z,4.40
2023-01-06T02:44:29.780Z,3.57
2023-01-06T02:47:03.449Z,3.23
2023-01-06T02:49:55.218Z,3.37
2023-01-06T02:52:25.207Z,3.20
2023-01-06T02:54:58.487Z,3.50
2023-01-06T02:57:45.342Z,2.83
2023-01-06T03:00:18.730Z,2.53
2023-01-06T03:02:51.570Z,0.60
2023-01-06T03:05:18.328Z,0.70
2023-01-06T03:07:47.780Z,1.57
2023-01-06T03:10:19.762Z,1.53
2023-01-06T03:12:57.611Z,1.17
2023-01-06T03:15:25.395Z,2.07
2023-01-06T03:17:52.694Z,1.37
2023-01-06T03:20:20.034Z,1.87
2023-01-06T03:22:47.829Z,0.93
2023-01-06T03:25:15.117Z,1.13
2023-01-06T03:27:43.169Z,2.07
2023-01-06T03:30:11.974Z,1.03
2023-01-06T03:33:02.819Z,1.30
2023-01-06T03:35:39.593Z,2.23
2023-01-06T03:38:27.360Z,0.97
2023-01-06T03:41:22.715Z,1.37
2023-01-06T03:44:02.717Z,0.73
2023-01-06T03:46:38.668Z,0.90
2023-01-06T03:49:47.561Z,0.83
2023-01-06T03:52:32.394Z,1.30
2023-01-06T03:55:10.976Z,1.63
2023-01-06T03:57:42.757Z,0.80
2023-01-06T04:00:19.912Z,1.20
2023-01-06T04:02:54.209Z,2.50
2023-01-06T04:05:26.011Z,0.90
2023-01-06T04:07:53.207Z,0.60
2023-01-06T04:10:22.863Z,0.77
2023-01-06T04:12:53.062Z,1.57
2023-01-06T04:15:29.121Z,0.87
2023-01-06T04:17:56.547Z,1.60
2023-01-06T04:20:27.208Z,0.47
2023-01-06T04:23:00.142Z,0.60
2023-01-06T04:25:32.505Z,0.50
2023-01-06T04:28:06.109Z,0.80
2023-01-06T04:30:32.889Z,2.30
2023-01-06T04:33:02.698Z,1.63
2023-01-06T04:35:29.315Z,1.47
2023-01-06T04:37:56.125Z,0.40
2023-01-06T04:40:22.852Z,0.40
2023-01-06T04:43:04.461Z,0.77
2023-01-06T04:45:31.525Z,0.60
2023-01-06T04:47:58.186Z,2.30
2023-01-06T04:50:24.851Z,0.80
2023-01-06T04:52:51.513Z,1.00
2023-01-06T04:55:18.388Z,1.80
2023-01-06T04:57:45.049Z,1.90
2023-01-06T05:00:12.276Z,1.70
2023-01-06T05:02:38.910Z,1.73
2023-01-06T05:05:06.001Z,1.87
2023-01-06T05:07:32.685Z,1.90
2023-01-06T05:09:59.579Z,1.43
2023-01-06T05:12:26.329Z,2.20
2023-01-06T05:14:53.069Z,4.63
2023-01-06T05:17:19.696Z,2.07
2023-01-06T05:19:46.489Z,2.97
2023-01-06T05:22:13.191Z,2.13
2023-01-06T05:24:39.922Z,2.43
2023-01-06T05:27:06.638Z,3.07
2023-01-06T05:29:33.756Z,1.60
2023-01-06T05:32:00.782Z,3.33
2023-01-06T05:34:27.754Z,2.37
2023-01-06T05:36:57.924Z,3.00
2023-01-06T05:39:24.626Z,2.83
2023-01-06T05:41:51.275Z,1.00
2023-01-06T05:44:20.601Z,1.00
2023-01-06T05:46:47.461Z,1.33
2023-01-06T05:49:14.316Z,1.73
2023-01-06T05:51:41.001Z,1.50
2023-01-06T05:54:09.084Z,2.20
2023-01-06T05:56:36.289Z,0.67
2023-01-06T05:59:03.641Z,2.43
2023-01-06T06:01:31.891Z,1.97
2023-01-06T06:03:58.999Z,2.10
2023-01-06T06:06:27.759Z,2.70
2023-01-06T06:08:54.416Z,2.40
2023-01-06T06:11:22.234Z,1.90
2023-01-06T06:13:54.063Z,0.77
2023-01-06T06:16:23.657Z,2.97
2023-01-06T06:18:53.175Z,1.07
2023-01-06T06:21:22.772Z,2.97
2023-01-06T06:23:49.738Z,2.43
2023-01-06T06:26:16.824Z,2.60
2023-01-06T06:28:43.620Z,2.37
2023-01-06T06:31:18.827Z,2.93
2023-01-06T06:33:45.564Z,2.50
2023-01-06T06:36:15.845Z,2.03
2023-01-06T06:38:47.011Z,1.67
2023-01-06T06:41:14.027Z,1.87
2023-01-06T06:43:41.371Z,2.13
2023-01-06T06:46:08.781Z,1.43
2023-01-06T06:48:36.067Z,2.23
2023-01-06T06:51:07.161Z,3.47
2023-01-06T06:53:35.190Z,4.00
2023-01-06T06:56:02.517Z,4.27
2023-01-06T06:58:29.513Z,3.00
2023-01-06T07:00:56.308Z,5.10
2023-01-06T07:03:23.077Z,3.97
2023-01-06T07:05:51.779Z,4.73
2023-01-06T07:08:18.768Z,2.37
2023-01-06T07:10:45.595Z,3.63
2023-01-06T07:13:12.744Z,2.70
2023-01-06T07:15:39.444Z,5.17
2023-01-06T07:18:06.807Z,5.17
2023-01-06T07:20:35.998Z,3.10
2023-01-06T07:23:03.550Z,2.20
2023-01-06T07:25:30.879Z,5.87
2023-01-06T07:28:00.204Z,5.33
2023-01-06T07:30:27.762Z,4.63
2023-01-06T07:32:54.680Z,4.23
2023-01-06T07:35:21.392Z,5.03
2023-01-06T07:37:48.107Z,5.83
2023-01-06T07:40:15.271Z,4.17
2023-01-06T07:42:41.991Z,4.60
2023-01-06T07:45:09.876Z,3.77
2023-01-06T07:47:36.849Z,1.73
2023-01-06T07:50:04.720Z,4.23
2023-01-06T07:52:31.812Z,4.00
2023-01-06T07:54:59.470Z,4.03
2023-01-06T07:57:30.270Z,4.87
2023-01-06T07:59:57.043Z,4.23
2023-01-06T08:02:23.894Z,7.03
2023-01-06T08:04:50.731Z,5.80
2023-01-06T08:07:17.669Z,3.27
2023-01-06T08:09:44.710Z,6.37
2023-01-06T08:12:12.433Z,4.77
2023-01-06T08:14:39.391Z,3.77
2023-01-06T08:17:06.079Z,2.53
2023-01-06T08:19:32.937Z,3.27
2023-01-06T08:21:59.652Z,7.53
2023-01-06T08:24:26.433Z,1.97
2023-01-06T08:26:53.122Z,4.30
2023-01-06T08:29:19.770Z,4.00
2023-01-06T08:31:46.391Z,4.03
2023-01-06T08:34:14.460Z,8.03
2023-01-06T08:36:43.122Z,4.50
2023-01-06T08:39:10.765Z,3.30
2023-01-06T08:41:38.290Z,3.77
2023-01-06T08:44:05.558Z,4.63
2023-01-06T08:46:33.462Z,4.07
2023-01-06T08:49:00.500Z,3.00
2023-01-06T08:51:28.412Z,3.67
2023-01-06T08:53:55.450Z,3.50
2023-01-06T08:56:24.628Z,5.57
2023-01-06T08:59:02.488Z,2.30
2023-01-06T09:01:35.014Z,2.43
2023-01-06T09:04:05.168Z,3.00
2023-01-06T09:06:32.531Z,3.83
2023-01-06T09:08:59.985Z,3.43
2023-01-06T09:11:27.228Z,5.30
2023-01-06T09:13:54.067Z,3.37
2023-01-06T09:16:21.909Z,5.33
2023-01-06T09:18:50.179Z,3.13
2023-01-06T09:21:22.225Z,3.37
2023-01-06T09:23:49.961Z,2.50
2023-01-06T09:26:17.993Z,2.60
2023-01-06T09:28:44.980Z,2.70
2023-01-06T09:31:12.025Z,2.60
2023-01-06T09:33:39.175Z,4.17
2023-01-06T09:36:06.855Z,4.50
2023-01-06T09:38:33.582Z,2.33
2023-01-06T09:41:18.259Z,4.83
2023-01-06T09:44:03.436Z,2.17
2023-01-06T09:46:35.113Z,3.93
2023-01-06T09:49:06.806Z,2.90
2023-01-06T09:51:35.556Z,2.00
2023-01-06T09:54:15.280Z,3.43
2023-01-06T09:56:45.191Z,2.17
2023-01-06T09:59:14.483Z,3.17
2023-01-06T10:01:47.201Z,1.73
2023-01-06T10:04:22.401Z,2.60
2023-01-06T10:06:54.954Z,3.97
2023-01-06T10:09:49.612Z,2.80
2023-01-06T10:13:08.198Z,1.30
2023-01-06T10:15:47.072Z,3.90
2023-01-06T10:18:37.355Z,2.43
2023-01-06T10:21:13.867Z,2.50
2023-01-06T10:23:51.595Z,1.37
2023-01-06T10:26:32.218Z,2.80
2023-01-06T10:29:04.015Z,1.43
2023-01-06T10:31:35.189Z,1.20
2023-01-06T10:34:17.016Z,2.43
2023-01-06T10:36:46.394Z,2.80
2023-01-06T10:39:20.171Z,1.30
2023-01-06T10:42:16.753Z,2.27
2023-01-06T10:44:43.473Z,1.33
2023-01-06T10:47:22.779Z,2.07
2023-01-06T10:49:49.670Z,1.90
2023-01-06T10:52:16.670Z,2.30
2023-01-06T10:54:44.944Z,1.47
2023-01-06T10:57:20.619Z,1.67
2023-01-06T11:00:12.681Z,2.20
2023-01-06T11:03:32.311Z,3.03
2023-01-06T11:06:07.185Z,2.60
2023-01-06T11:08:35.625Z,1.17
2023-01-06T11:11:02.780Z,3.03
2023-01-06T11:13:34.436Z,1.57
2023-01-06T11:16:07.915Z,2.33
2023-01-06T11:18:39.381Z,1.90
2023-01-06T11:21:10.306Z,3.53
2023-01-06T11:23:41.183Z,1.23
2023-01-06T11:26:14.269Z,1.13
2023-01-06T11:28:43.389Z,1.73
2023-01-06T11:31:30.412Z,2.30
2023-01-06T11:34:03.403Z,2.33
2023-01-06T11:36:32.741Z,0.73
2023-01-06T11:39:12.375Z,1.70
2023-01-06T11:41:43.960Z,2.57
2023-01-06T11:44:22.465Z,1.43
2023-01-06T11:46:52.183Z,4.83
2023-01-06T11:49:26.514Z,1.87
2023-01-06T11:52:02.902Z,1.40
2023-01-06T11:54:39.161Z,3.23
2023-01-06T11:57:27.448Z,0.83
2023-01-06T12:00:19.093Z,1.87
2023-01-06T12:02:57.489Z,1.87
2023-01-06T12:05:35.097Z,1.27
2023-01-06T12:08:06.991Z,1.83
2023-01-06T12:10:35.504Z,0.70
2023-01-06T12:13:02.950Z,1.73
2023-01-06T12:15:33.272Z,1.30
2023-01-06T12:18:26.658Z,0.93
2023-01-06T12:20:58.168Z,1.97
2023-01-06T12:23:31.249Z,1.40
2023-01-06T12:26:02.661Z,1.43
2023-01-06T12:28:39.715Z,2.10
2023-01-06T12:31:09.422Z,2.20
2023-01-06T12:33:42.218Z,0.60
2023-01-06T12:36:19.528Z,1.20
2023-01-06T12:38:52.524Z,1.67
2023-01-06T12:41:37.905Z,2.10
2023-01-06T12:44:27.928Z,1.00
2023-01-06T12:47:02.775Z,1.90
2023-01-06T12:49:43.038Z,1.03
2023-01-06T12:52:17.404Z,1.47
2023-01-06T12:54:51.569Z,0.97
2023-01-06T12:57:27.101Z,2.87
2023-01-06T12:59:59.722Z,1.37
2023-01-06T13:02:54.528Z,3.30
2023-01-06T13:05:29.116Z,1.00
2023-01-06T13:08:40.954Z,1.23
2023-01-06T13:11:19.089Z,0.90
2023-01-06T13:14:04.484Z,0.87
2023-01-06T13:16:43.412Z,1.37
2023-01-06T13:19:20.473Z,0.93
2023-01-06T13:21:50.067Z,1.73
2023-01-06T13:24:37.841Z,0.57
2023-01-06T13:27:25.665Z,1.50
2023-01-06T13:30:26.394Z,1.73
2023-01-06T13:33:35.968Z,1.87
2023-01-06T13:36:21.428Z,1.17
2023-01-06T13:38:59.347Z,1.70
2023-01-06T13:41:31.881Z,0.70
2023-01-06T13:43:59.795Z,0.63
2023-01-06T13:46:28.335Z,1.20
2023-01-06T13:49:01.389Z,2.53
2023-01-06T13:51:35.128Z,3.37
2023-01-06T13:54:02.991Z,1.50
2023-01-06T13:56:34.811Z,1.87
2023-01-06T13:59:20.874Z,1.67
2023-01-06T14:01:48.071Z,2.07
2023-01-06T14:04:32.972Z,1.47
2023-01-06T14:07:00.744Z,2.63
2023-01-06T14:09:28.201Z,4.80
2023-01-06T14:12:09.110Z,1.40
2023-01-06T14:14:38.973Z,1.77
2023-01-06T14:17:05.925Z,3.43
2023-01-06T14:19:38.533Z,2.77
2023-01-06T14:22:17.851Z,2.43
2023-01-06T14:24:51.457Z,2.97
2023-01-06T14:27:47.025Z,1.87
2023-01-06T14:30:22.967Z,1.47
2023-01-06T14:32:49.608Z,3.37
2023-01-06T14:35:21.629Z,3.63
2023-01-06T14:38:12.749Z,2.60
2023-01-06T14:40:49.692Z,3.70
2023-01-06T14:43:35.023Z,1.50
2023-01-06T14:46:19.163Z,1.60
2023-01-06T14:48:52.045Z,2.10
2023-01-06T14:51:21.390Z,1.80
2023-01-06T14:53:58.490Z,1.67
2023-01-06T14:56:28.866Z,1.47
2023-01-06T14:59:13.599Z,1.37
2023-01-06T15:01:44.048Z,1.70
2023-01-06T15:04:24.054Z,1.60
2023-01-06T15:07:03.273Z,2.17
2023-01-06T15:09:30.136Z,2.80
2023-01-06T15:11:57.022Z,1.57
2023-01-06T15:14:25.797Z,1.07
2023-01-06T15:16:54.734Z,2.87
2023-01-06T15:19:21.919Z,2.43
2023-01-06T15:21:51.919Z,4.40
2023-01-06T15:24:31.921Z,7.07
2023-01-06T15:27:05.386Z,9.17
2023-01-06T15:29:32.175Z,6.63
2023-01-06T15:31:59.939Z,6.50
2023-01-06T15:34:40.323Z,5.60
2023-01-06T15:37:14.364Z,3.90
2023-01-06T15:39:42.743Z,3.07
2023-01-06T15:42:13.271Z,2.50
2023-01-06T15:44:40.246Z,2.00
2023-01-06T15:47:12.911Z,1.80
2023-01-06T15:50:02.929Z,1.93
2023-01-06T15:52:38.685Z,1.77
2023-01-06T15:55:07.752Z,1.87
2023-01-06T15:57:39.156Z,1.50
2023-01-06T16:00:09.113Z,1.27
2023-01-06T16:02:35.904Z,1.87
2023-01-06T16:05:02.984Z,2.33
2023-01-06T16:07:36.569Z,2.17
2023-01-06T16:10:03.555Z,2.60
2023-01-06T16:12:30.215Z,2.60
2023-01-06T16:14:56.890Z,2.63
2023-01-06T16:17:31.508Z,4.10
2023-01-06T16:20:00.664Z,4.30
2023-01-06T16:22:51.102Z,3.50
2023-01-06T16:25:21.163Z,2.10
2023-01-06T16:27:52.400Z,2.70
2023-01-06T16:30:27.013Z,2.30
2023-01-06T16:32:55.751Z,3.30
2023-01-06T16:35:25.571Z,2.13
2023-01-06T16:37:52.857Z,2.03
2023-01-06T16:40:22.616Z,3.93
2023-01-06T16:42:50.932Z,2.83
2023-01-06T16:45:26.860Z,3.07
2023-01-06T16:47:54.645Z,3.30
2023-01-06T16:50:36.309Z,3.17
2023-01-06T16:53:15.313Z,2.77
2023-01-06T16:55:42.757Z,2.57
2023-01-06T16:58:23.264Z,2.70
2023-01-06T17:00:52.274Z,2.60
2023-01-06T17:03:21.590Z,2.37
2023-01-06T17:05:48.491Z,3.30
2023-01-06T17:08:17.061Z,2.70
2023-01-06T17:10:44.774Z,2.20
2023-01-06T17:13:34.619Z,3.13
2023-01-06T17:16:09.455Z,4.27
2023-01-06T17:19:06.311Z,4.47
2023-01-06T17:21:37.666Z,4.00
2023-01-06T17:24:24.717Z,2.90
2023-01-06T17:26:57.020Z,3.97
2023-01-06T17:29:26.706Z,3.67
2023-01-06T17:31:57.006Z,4.00
2023-01-06T17:34:31.693Z,5.00
2023-01-06T17:37:02.879Z,3.23
2023-01-06T17:39:35.596Z,4.50
2023-01-06T17:42:26.527Z,3.70
2023-01-06T17:44:55.753Z,5.23
2023-01-06T17:47:22.407Z,6.03
2023-01-06T17:49:54.987Z,4.00
2023-01-06T17:52:24.288Z,5.40
2023-01-06T17:55:15.569Z,5.67
2023-01-06T17:57:46.176Z,3.50
2023-01-06T18:00:26.844Z,3.40
2023-01-06T18:03:02.947Z,3.47
2023-01-06T18:05:35.428Z,4.63
2023-01-06T18:08:04.868Z,4.97
2023-01-06T18:10:40.367Z,3.27
2023-01-06T18:13:17.506Z,5.00
2023-01-06T18:15:46.454Z,5.67
2023-01-06T18:18:23.785Z,6.57
2023-01-06T18:21:00.431Z,5.70
2023-01-06T18:23:28.161Z,9.50
2023-01-06T18:26:06.516Z,5.90
2023-01-06T18:28:35.716Z,8.17
2023-01-06T18:31:03.490Z,5.70
2023-01-06T18:33:30.329Z,7.13
2023-01-06T18:35:59.868Z,4.80
2023-01-06T18:38:29.866Z,5.63
2023-01-06T18:40:56.750Z,5.90
2023-01-06T18:43:29.892Z,5.97
2023-01-06T18:46:13.056Z,5.60
2023-01-06T18:48:40.133Z,6.00
2023-01-06T18:51:18.349Z,5.10
2023-01-06T18:53:49.743Z,7.27
2023-01-06T18:56:18.739Z,4.80
2023-01-06T18:58:49.622Z,4.40
2023-01-06T19:01:26.192Z,4.63
2023-01-06T19:04:02.098Z,5.97
2023-01-06T19:06:38.437Z,4.30
2023-01-06T19:09:36.235Z,6.27
2023-01-06T19:12:17.634Z,4.07
2023-01-06T19:14:49.697Z,5.87
2023-01-06T19:17:30.394Z,4.20
2023-01-06T19:20:00.972Z,4.40
2023-01-06T19:22:29.653Z,4.27
2023-01-06T19:25:13.284Z,4.63
2023-01-06T19:27:58.051Z,5.10
2023-01-06T19:30:44.240Z,5.00
2023-01-06T19:33:34.391Z,5.60
2023-01-06T19:36:04.360Z,6.57
2023-01-06T19:38:35.620Z,8.17
2023-01-06T19:41:14.046Z,6.13
2023-01-06T19:43:40.954Z,5.47
2023-01-06T19:46:23.935Z,4.97
2023-01-06T19:48:51.013Z,6.23
2023-01-06T19:51:20.450Z,7.57
2023-01-06T19:53:53.782Z,4.80
2023-01-06T19:56:29.449Z,6.30
2023-01-06T19:59:18.039Z,6.07
2023-01-06T20:01:45.743Z,5.20
2023-01-06T20:04:24.036Z,5.53
2023-01-06T20:06:51.010Z,4.43
2023-01-06T20:09:18.093Z,5.47
2023-01-06T20:11:44.751Z,4.57
2023-01-06T20:14:11.449Z,5.77
2023-01-06T20:16:38.204Z,4.07
2023-01-06T20:19:05.050Z,4.10
2023-01-06T20:21:32.125Z,4.53
2023-01-06T20:23:58.921Z,3.73
2023-01-06T20:26:26.517Z,6.23
2023-01-06T20:28:53.176Z,4.43
2023-01-06T20:31:20.193Z,4.43
2023-01-06T20:33:46.968Z,3.87
2023-01-06T20:36:17.144Z,5.17
2023-01-06T20:38:45.294Z,6.10
2023-01-06T20:41:12.242Z,3.13
2023-01-06T20:43:39.267Z,4.17
2023-01-06T20:46:06.401Z,4.97
2023-01-06T20:48:33.308Z,5.50
2023-01-06T20:51:00.397Z,5.13
2023-01-06T20:53:27.408Z,3.30
2023-01-06T20:55:54.096Z,3.60
2023-01-06T20:58:20.900Z,3.10
2023-01-06T21:00:47.545Z,3.23
2023-01-06T21:03:14.239Z,3.40
2023-01-06T21:05:40.939Z,3.90
2023-01-06T21:08:07.674Z,3.63
2023-01-06T21:10:34.365Z,4.33
2023-01-06T21:13:01.044Z,3.27
2023-01-06T21:15:27.735Z,3.10
2023-01-06T21:17:54.465Z,5.20
2023-01-06T21:20:21.133Z,4.70
2023-01-06T21:22:47.862Z,6.23
2023-01-06T21:25:16.419Z,5.53
2023-01-06T21:27:43.106Z,4.80
2023-01-06T21:30:10.236Z,4.77
2023-01-06T21:32:37.071Z,5.30
2023-01-06T21:35:03.837Z,4.67
2023-01-06T21:37:30.563Z,5.53
2023-01-06T21:39:57.292Z,4.90
2023-01-06T21:42:42.619Z,5.13
2023-01-06T21:45:10.215Z,4.60
2023-01-06T21:47:36.843Z,3.80
2023-01-06T21:50:04.042Z,4.87
2023-01-06T21:52:31.925Z,5.27
2023-01-06T21:54:59.131Z,4.47
2023-01-06T21:57:25.874Z,3.83
2023-01-06T21:59:52.509Z,3.80
2023-01-06T22:02:19.426Z,4.73
2023-01-06T22:04:46.129Z,3.90
2023-01-06T22:07:13.621Z,4.57
2023-01-06T22:09:42.399Z,5.13
2023-01-06T22:12:13.123Z,3.47
2023-01-06T22:14:40.312Z,3.97
2023-01-06T22:17:07.323Z,6.87
2023-01-06T22:19:34.799Z,4.47
2023-01-06T22:22:02.622Z,4.87
2023-01-06T22:24:32.155Z,5.00
2023-01-06T22:26:59.041Z,5.20
2023-01-06T22:29:26.821Z,4.90
2023-01-06T22:31:53.515Z,7.23
2023-01-06T22:34:20.714Z,5.93
2023-01-06T22:36:47.418Z,6.07
2023-01-06T22:39:14.134Z,5.17
2023-01-06T22:41:40.974Z,5.63
2023-01-06T22:44:07.782Z,4.73
2023-01-06T22:46:34.599Z,4.40
2023-01-06T22:49:01.417Z,4.20
2023-01-06T22:51:28.660Z,5.07
2023-01-06T22:53:56.931Z,5.03
2023-01-06T22:56:24.189Z,4.73
2023-01-06T22:58:51.019Z,6.70
2023-01-06T23:01:17.926Z,4.43
2023-01-06T23:03:44.721Z,6.00
2023-01-06T23:06:13.793Z,3.47
2023-01-06T23:08:50.959Z,3.47
2023-01-06T23:11:22.470Z,3.57
2023-01-06T23:13:49.181Z,3.43
2023-01-06T23:16:19.077Z,3.23
2023-01-06T23:18:47.775Z,4.03
2023-01-06T23:21:20.546Z,4.13
2023-01-06T23:23:48.935Z,5.30
2023-01-06T23:26:24.269Z,3.30
2023-01-06T23:28:52.350Z,3.30
2023-01-06T23:31:22.017Z,3.20
2023-01-06T23:33:55.855Z,3.57
2023-01-06T23:36:24.698Z,2.73
2023-01-06T23:38:52.040Z,3.17
2023-01-06T23:41:22.755Z,3.80
2023-01-06T23:43:50.224Z,4.43
2023-01-06T23:46:28.577Z,4.33
2023-01-06T23:48:55.979Z,3.73
2023-01-06T23:51:23.338Z,5.53
2023-01-06T23:53:50.397Z,2.73
2023-01-06T23:56:23.324Z,3.03
2023-01-06T23:58:53.503Z,2.57
